createdAt,value
2022-09-14T00:02:05.005Z,59.65
2022-09-14T00:05:06.798Z,59.68
2022-09-14T00:08:08.480Z,62.10
2022-09-14T00:11:14.910Z,66.20
2022-09-14T00:14:17.195Z,67.07
2022-09-14T00:17:18.848Z,66.07
2022-09-14T00:20:20.312Z,67.16
2022-09-14T00:23:21.702Z,68.58
2022-09-14T00:26:23.722Z,69.01
2022-09-14T00:29:25.236Z,68.78
2022-09-14T00:32:26.681Z,70.50
2022-09-14T00:35:28.236Z,69.84
2022-09-14T00:38:29.662Z,68.76
2022-09-14T00:41:34.845Z,67.53
2022-09-14T00:44:36.305Z,68.27
2022-09-14T00:47:37.768Z,73.22
2022-09-14T00:50:39.374Z,72.32
2022-09-14T00:53:41.156Z,70.90
2022-09-14T00:56:42.710Z,72.90
2022-09-14T00:59:46.435Z,71.53
2022-09-14T01:02:48.004Z,72.26
2022-09-14T01:06:23.350Z,71.21
2022-09-14T01:09:53.273Z,71.62
2022-09-14T01:13:22.957Z,70.25
2022-09-14T01:16:35.027Z,70.86
2022-09-14T01:20:03.860Z,71.41
2022-09-14T01:23:14.527Z,70.62
2022-09-14T01:26:58.650Z,71.89
2022-09-14T01:30:18.964Z,70.45
2022-09-14T01:33:37.396Z,70.49
2022-09-14T01:36:42.745Z,71.05
2022-09-14T01:39:49.928Z,70.73
2022-09-14T01:42:57.617Z,70.34
2022-09-14T01:46:10.915Z,70.62
2022-09-14T01:49:21.693Z,70.50
2022-09-14T01:52:33.491Z,71.16
2022-09-14T01:55:43.785Z,70.69
2022-09-14T01:58:50.191Z,70.29
2022-09-14T02:02:19.859Z,71.31
2022-09-14T02:05:33.181Z,71.23
2022-09-14T02:08:35.306Z,71.51
2022-09-14T02:11:38.032Z,71.58
2022-09-14T02:14:39.527Z,71.69
2022-09-14T02:17:41.540Z,72.39
2022-09-14T02:20:46.431Z,72.56
2022-09-14T02:23:49.103Z,72.00
2022-09-14T02:26:51.899Z,73.15
2022-09-14T02:29:53.785Z,72.80
2022-09-14T02:33:14.566Z,73.21
2022-09-14T02:36:35.384Z,72.48
2022-09-14T02:40:07.472Z,72.45
2022-09-14T02:43:32.859Z,73.72
2022-09-14T02:46:52.629Z,74.15
2022-09-14T02:50:00.280Z,73.49
2022-09-14T02:53:06.934Z,73.03
2022-09-14T02:56:11.041Z,73.65
2022-09-14T02:59:12.769Z,73.95
2022-09-14T03:02:14.323Z,73.97
2022-09-14T03:05:15.859Z,74.26
2022-09-14T03:08:17.318Z,74.66
2022-09-14T03:11:18.775Z,74.35
2022-09-14T03:14:20.209Z,74.03
2022-09-14T03:17:21.622Z,74.25
2022-09-14T03:20:29.098Z,73.60
2022-09-14T03:23:30.620Z,73.16
2022-09-14T03:26:36.685Z,72.55
2022-09-14T03:29:38.150Z,72.79
2022-09-14T03:32:39.749Z,72.69
2022-09-14T03:35:41.154Z,73.04
2022-09-14T03:38:47.753Z,72.66
2022-09-14T03:41:49.162Z,73.26
2022-09-14T03:44:50.565Z,73.06
2022-09-14T03:47:51.968Z,73.32
2022-09-14T03:50:53.383Z,73.41
2022-09-14T03:53:55.761Z,73.06
2022-09-14T03:56:57.155Z,72.94
2022-09-14T03:59:58.909Z,72.18
2022-09-14T04:03:00.599Z,72.81
2022-09-14T04:06:05.298Z,71.94
2022-09-14T04:09:06.755Z,72.39
2022-09-14T04:12:08.511Z,72.38
2022-09-14T04:15:10.103Z,72.78
2022-09-14T04:18:12.205Z,72.62
2022-09-14T04:21:19.292Z,73.41
2022-09-14T04:24:21.055Z,73.56
2022-09-14T04:27:23.173Z,73.05
2022-09-14T04:30:24.592Z,73.16
2022-09-14T04:33:29.584Z,72.87
2022-09-14T04:36:31.549Z,73.08
2022-09-14T04:39:33.154Z,73.31
2022-09-14T04:42:34.557Z,73.36
2022-09-14T04:45:37.003Z,73.56
2022-09-14T04:48:38.858Z,73.35
2022-09-14T04:51:40.184Z,73.03
2022-09-14T04:54:41.594Z,73.15
2022-09-14T04:57:43.005Z,72.98
2022-09-14T05:00:44.402Z,73.11
2022-09-14T05:03:46.581Z,73.02
2022-09-14T05:06:48.028Z,73.03
2022-09-14T05:09:49.438Z,73.30
2022-09-14T05:12:50.901Z,73.47
2022-09-14T05:15:52.387Z,73.25
2022-09-14T05:18:56.074Z,73.24
2022-09-14T05:21:57.482Z,73.61
2022-09-14T05:24:58.929Z,73.62
2022-09-14T05:28:00.374Z,73.43
2022-09-14T05:31:06.876Z,73.76
2022-09-14T05:34:10.165Z,73.96
2022-09-14T05:37:12.737Z,73.62
2022-09-14T05:40:14.324Z,73.35
2022-09-14T05:43:15.747Z,73.64
2022-09-14T05:46:22.122Z,73.44
2022-09-14T05:49:25.194Z,73.55
2022-09-14T05:52:29.373Z,73.78
2022-09-14T05:55:30.919Z,74.26
2022-09-14T05:58:32.728Z,74.17
2022-09-14T06:01:34.188Z,74.79
2022-09-14T06:04:36.170Z,74.52
2022-09-14T06:07:37.586Z,74.88
2022-09-14T06:10:39.051Z,74.50
2022-09-14T06:13:41.122Z,74.84
2022-09-14T06:16:42.524Z,74.52
2022-09-14T06:19:43.991Z,74.25
2022-09-14T06:22:45.608Z,74.32
2022-09-14T06:25:47.041Z,75.39
2022-09-14T06:28:49.414Z,75.11
2022-09-14T06:31:50.836Z,74.31
2022-09-14T06:34:52.230Z,74.47
2022-09-14T06:37:54.538Z,74.40
2022-09-14T06:40:57.710Z,74.17
2022-09-14T06:44:01.605Z,75.19
2022-09-14T06:47:03.261Z,74.23
2022-09-14T06:50:05.207Z,74.24
2022-09-14T06:53:06.537Z,74.88
2022-09-14T06:56:08.096Z,74.84
2022-09-14T06:59:12.542Z,75.44
2022-09-14T07:02:14.118Z,75.08
2022-09-14T07:05:15.647Z,74.54
2022-09-14T07:08:17.029Z,74.91
2022-09-14T07:11:21.006Z,74.04
2022-09-14T07:14:22.615Z,74.13
2022-09-14T07:17:24.024Z,73.61
2022-09-14T07:20:25.465Z,73.46
2022-09-14T07:23:26.881Z,73.60
2022-09-14T07:26:35.265Z,72.36
2022-09-14T07:29:36.660Z,72.89
2022-09-14T07:32:38.353Z,72.66
2022-09-14T07:35:40.048Z,73.07
2022-09-14T07:38:52.557Z,72.99
2022-09-14T07:41:55.451Z,73.15
2022-09-14T07:44:57.574Z,72.73
2022-09-14T07:48:03.160Z,74.33
2022-09-14T07:51:07.644Z,72.65
2022-09-14T07:54:12.403Z,73.13
2022-09-14T07:57:14.660Z,72.61
2022-09-14T08:00:16.501Z,71.90
2022-09-14T08:03:18.312Z,71.41
2022-09-14T08:06:24.282Z,71.12
2022-09-14T08:09:26.594Z,70.96
2022-09-14T08:12:28.836Z,69.99
2022-09-14T08:15:31.770Z,68.48
2022-09-14T08:18:35.170Z,67.64
2022-09-14T08:21:37.073Z,65.86
2022-09-14T08:24:38.636Z,65.28
2022-09-14T08:27:40.121Z,64.16
2022-09-14T08:30:41.546Z,64.95
2022-09-14T08:33:45.331Z,65.12
2022-09-14T08:36:47.339Z,66.75
2022-09-14T08:39:51.643Z,66.84
2022-09-14T08:42:58.647Z,66.87
2022-09-14T08:46:04.628Z,68.51
2022-09-14T08:49:18.842Z,69.15
2022-09-14T08:52:32.344Z,69.73
2022-09-14T08:55:41.250Z,69.24
2022-09-14T08:59:07.929Z,68.76
2022-09-14T09:02:40.609Z,69.95
2022-09-14T09:05:53.559Z,68.04
2022-09-14T09:09:23.984Z,67.10
2022-09-14T09:12:28.032Z,66.90
2022-09-14T09:15:32.286Z,65.17
2022-09-14T09:18:47.985Z,63.08
2022-09-14T09:21:50.448Z,60.84
2022-09-14T09:24:55.364Z,61.31
2022-09-14T09:28:09.719Z,59.92
2022-09-14T09:31:15.005Z,59.50
2022-09-14T09:34:36.110Z,60.87
2022-09-14T09:37:57.910Z,60.91
2022-09-14T09:41:02.279Z,60.93
2022-09-14T09:44:11.135Z,60.45
2022-09-14T09:47:12.879Z,60.20
2022-09-14T09:50:14.524Z,60.52
2022-09-14T09:53:18.558Z,60.85
2022-09-14T09:56:31.928Z,61.48
2022-09-14T09:59:42.350Z,61.57
2022-09-14T10:02:44.115Z,61.13
2022-09-14T10:05:45.445Z,60.44
2022-09-14T10:08:47.476Z,58.99
2022-09-14T10:11:58.395Z,58.21
2022-09-14T10:15:17.450Z,57.47
2022-09-14T10:18:28.325Z,56.90
2022-09-14T10:21:31.320Z,57.66
2022-09-14T10:24:35.937Z,55.04
2022-09-14T10:27:46.124Z,53.66
2022-09-14T10:30:53.381Z,53.57
2022-09-14T10:33:57.665Z,52.06
2022-09-14T10:37:36.172Z,51.48
2022-09-14T10:40:43.904Z,52.33
2022-09-14T10:44:43.185Z,50.63
2022-09-14T10:48:02.594Z,53.19
2022-09-14T10:51:20.551Z,55.30
2022-09-14T10:54:31.612Z,55.52
2022-09-14T10:57:54.121Z,55.33
2022-09-14T11:01:14.316Z,55.96
2022-09-14T11:04:34.835Z,56.97
2022-09-14T11:08:30.328Z,57.68
2022-09-14T11:11:58.968Z,57.23
2022-09-14T11:15:32.145Z,60.34
2022-09-14T11:18:48.421Z,60.92
2022-09-14T11:22:19.581Z,61.40
2022-09-14T11:25:33.114Z,66.04
2022-09-14T11:28:41.258Z,68.05
2022-09-14T11:32:16.798Z,70.66
2022-09-14T11:35:29.514Z,72.20
2022-09-14T11:38:47.630Z,73.10
2022-09-14T11:41:51.525Z,74.52
2022-09-14T11:45:13.814Z,73.66
2022-09-14T11:48:43.958Z,74.33
2022-09-14T11:52:07.673Z,74.70
2022-09-14T11:55:15.355Z,74.00
2022-09-14T11:58:29.675Z,73.78
2022-09-14T12:01:38.453Z,74.33
2022-09-14T12:05:05.828Z,73.98
2022-09-14T12:08:30.604Z,73.68
2022-09-14T12:11:35.234Z,73.98
2022-09-14T12:14:40.502Z,74.30
2022-09-14T12:17:42.574Z,73.61
2022-09-14T12:20:46.795Z,74.68
2022-09-14T12:23:52.237Z,73.84
2022-09-14T12:26:54.276Z,74.06
2022-09-14T12:29:55.688Z,73.64
2022-09-14T12:32:57.112Z,73.08
2022-09-14T12:36:01.196Z,72.50
2022-09-14T12:39:02.553Z,73.03
2022-09-14T12:42:25.491Z,72.28
2022-09-14T12:45:59.858Z,71.81
2022-09-14T12:49:04.233Z,71.61
2022-09-14T12:52:20.259Z,70.88
2022-09-14T12:55:42.727Z,72.37
2022-09-14T12:58:56.604Z,71.66
2022-09-14T13:02:34.125Z,71.19
2022-09-14T13:05:35.753Z,71.51
2022-09-14T13:08:37.234Z,71.82
2022-09-14T13:11:41.234Z,70.71
2022-09-14T13:14:53.777Z,71.12
2022-09-14T13:18:03.853Z,71.52
2022-09-14T13:21:20.988Z,70.24
2022-09-14T13:24:29.426Z,70.04
2022-09-14T13:27:38.022Z,69.68
2022-09-14T13:30:41.803Z,69.95
2022-09-14T13:33:51.740Z,69.23
2022-09-14T13:36:55.661Z,69.48
2022-09-14T13:39:58.365Z,69.86
2022-09-14T13:43:00.261Z,69.73
2022-09-14T13:46:05.059Z,69.96
2022-09-14T13:49:07.575Z,70.31
2022-09-14T13:52:31.056Z,69.21
2022-09-14T13:55:45.108Z,70.86
2022-09-14T13:58:48.505Z,69.78
2022-09-14T14:01:53.793Z,69.11
2022-09-14T14:04:55.367Z,69.22
2022-09-14T14:07:59.271Z,69.91
2022-09-14T14:11:02.696Z,71.36
2022-09-14T14:14:16.288Z,71.41
2022-09-14T14:17:25.237Z,69.19
2022-09-14T14:20:26.800Z,70.73
2022-09-14T14:23:28.714Z,70.72
2022-09-14T14:26:30.131Z,71.05
2022-09-14T14:29:31.625Z,70.40
2022-09-14T14:32:33.455Z,71.71
2022-09-14T14:35:34.851Z,70.87
2022-09-14T14:38:36.518Z,71.29
2022-09-14T14:41:38.019Z,70.77
2022-09-14T14:44:39.689Z,70.44
2022-09-14T14:47:41.338Z,69.67
2022-09-14T14:50:42.757Z,70.36
2022-09-14T14:53:44.669Z,70.27
2022-09-14T14:56:47.336Z,70.52
2022-09-14T14:59:52.705Z,69.92
2022-09-14T15:02:54.201Z,70.65
2022-09-14T15:05:55.595Z,71.97
2022-09-14T15:08:57.014Z,71.39
2022-09-14T15:11:58.428Z,70.59
2022-09-14T15:15:00.452Z,70.22
2022-09-14T15:18:01.931Z,70.73
2022-09-14T15:21:03.429Z,70.13
2022-09-14T15:24:05.366Z,69.41
2022-09-14T15:27:06.751Z,70.35
2022-09-14T15:30:10.214Z,69.59
2022-09-14T15:33:11.669Z,70.51
2022-09-14T15:36:13.248Z,70.17
2022-09-14T15:39:14.837Z,70.46
2022-09-14T15:42:19.463Z,69.66
2022-09-14T15:45:20.962Z,69.67
2022-09-14T15:48:22.417Z,69.44
2022-09-14T15:51:23.922Z,69.27
2022-09-14T15:54:30.761Z,69.35
2022-09-14T15:57:32.622Z,69.39
2022-09-14T16:00:34.841Z,69.63
2022-09-14T16:03:36.457Z,69.85
2022-09-14T16:06:38.373Z,69.85
2022-09-14T16:09:41.120Z,69.86
2022-09-14T16:12:42.513Z,69.89
2022-09-14T16:15:44.089Z,69.21
2022-09-14T16:18:46.023Z,69.60
2022-09-14T16:21:50.398Z,69.96
2022-09-14T16:24:54.950Z,69.96
2022-09-14T16:27:56.365Z,69.39
2022-09-14T16:31:08.185Z,69.01
2022-09-14T16:34:21.885Z,70.36
2022-09-14T16:37:23.281Z,70.34
2022-09-14T16:40:25.393Z,70.49
2022-09-14T16:43:27.802Z,70.77
2022-09-14T16:46:30.929Z,70.21
2022-09-14T16:49:32.482Z,69.81
2022-09-14T16:52:33.883Z,70.18
2022-09-14T16:55:35.579Z,70.18
2022-09-14T16:58:38.467Z,69.81
2022-09-14T17:01:42.432Z,69.03
2022-09-14T17:04:43.898Z,69.41
2022-09-14T17:07:45.285Z,68.50
2022-09-14T17:10:47.197Z,68.19
2022-09-14T17:13:48.767Z,68.50
2022-09-14T17:16:50.322Z,69.58
2022-09-14T17:19:52.041Z,69.45
2022-09-14T17:22:53.807Z,69.32
2022-09-14T17:25:55.733Z,68.36
2022-09-14T17:28:57.763Z,68.16
2022-09-14T17:31:59.177Z,68.02
2022-09-14T17:35:01.799Z,67.72
2022-09-14T17:38:03.969Z,68.07
2022-09-14T17:41:08.651Z,68.30
2022-09-14T17:44:12.687Z,68.43
2022-09-14T17:47:14.259Z,69.46
2022-09-14T17:50:16.652Z,69.00
2022-09-14T17:53:18.189Z,68.82
2022-09-14T17:56:23.987Z,70.20
2022-09-14T17:59:25.430Z,70.74
2022-09-14T18:02:26.888Z,70.35
2022-09-14T18:05:28.314Z,71.04
2022-09-14T18:08:29.732Z,71.51
2022-09-14T18:11:31.770Z,71.10
2022-09-14T18:14:33.310Z,70.26
2022-09-14T18:17:34.803Z,70.64
2022-09-14T18:20:37.735Z,70.28
2022-09-14T18:23:39.414Z,69.18
2022-09-14T18:26:41.035Z,69.05
2022-09-14T18:29:42.425Z,68.81
2022-09-14T18:32:46.166Z,68.43
2022-09-14T18:35:47.601Z,67.78
2022-09-14T18:38:49.635Z,67.49
2022-09-14T18:41:53.551Z,67.83
2022-09-14T18:44:56.229Z,67.71
2022-09-14T18:47:57.743Z,67.13
2022-09-14T18:51:04.851Z,68.14
2022-09-14T18:54:07.591Z,68.80
2022-09-14T18:57:09.399Z,68.69
2022-09-14T19:00:14.061Z,68.83
2022-09-14T19:03:19.168Z,68.04
2022-09-14T19:06:20.654Z,68.25
2022-09-14T19:09:22.142Z,67.82
2022-09-14T19:12:24.024Z,67.51
2022-09-14T19:15:27.752Z,68.67
2022-09-14T19:18:32.229Z,68.77
2022-09-14T19:21:34.109Z,68.50
2022-09-14T19:24:35.513Z,68.49
2022-09-14T19:27:37.012Z,67.67
2022-09-14T19:30:42.523Z,68.84
2022-09-14T19:33:45.644Z,69.13
2022-09-14T19:36:48.081Z,70.26
2022-09-14T19:39:49.672Z,69.90
2022-09-14T19:42:51.759Z,69.72
2022-09-14T19:45:53.253Z,70.09
2022-09-14T19:48:54.909Z,69.54
2022-09-14T19:51:56.521Z,71.15
2022-09-14T19:54:58.016Z,70.97
2022-09-14T19:57:59.494Z,70.52
2022-09-14T20:01:00.908Z,70.24
2022-09-14T20:04:03.673Z,69.90
2022-09-14T20:07:07.432Z,70.42
2022-09-14T20:10:09.925Z,70.59
2022-09-14T20:13:11.357Z,70.49
2022-09-14T20:16:19.175Z,70.56
2022-09-14T20:19:23.355Z,70.22
2022-09-14T20:22:24.743Z,70.02
2022-09-14T20:25:26.190Z,70.24
2022-09-14T20:28:28.361Z,70.65
2022-09-14T20:31:30.965Z,71.08
2022-09-14T20:34:32.679Z,71.31
2022-09-14T20:37:34.082Z,70.59
2022-09-14T20:40:35.565Z,71.06
2022-09-14T20:43:39.285Z,70.90
2022-09-14T20:46:43.825Z,70.29
2022-09-14T20:49:45.393Z,70.63
2022-09-14T20:52:46.794Z,70.58
2022-09-14T20:55:48.234Z,70.70
2022-09-14T20:58:53.589Z,70.89
2022-09-14T21:01:55.171Z,71.24
2022-09-14T21:04:56.917Z,71.40
2022-09-14T21:07:58.399Z,71.37
2022-09-14T21:11:12.525Z,72.17
2022-09-14T21:14:16.610Z,71.24
2022-09-14T21:17:18.167Z,71.14
2022-09-14T21:20:19.630Z,70.97
2022-09-14T21:23:21.021Z,71.29
2022-09-14T21:26:23.137Z,70.97
2022-09-14T21:29:24.766Z,70.58
2022-09-14T21:32:26.189Z,70.48
2022-09-14T21:35:31.641Z,70.43
2022-09-14T21:38:35.861Z,70.96
2022-09-14T21:41:38.787Z,71.22
2022-09-14T21:44:40.191Z,71.95
2022-09-14T21:47:41.645Z,71.60
2022-09-14T21:50:47.252Z,71.69
2022-09-14T21:53:52.190Z,72.45
2022-09-14T21:56:54.207Z,71.99
2022-09-14T21:59:55.612Z,72.78
2022-09-14T22:02:57.069Z,71.77
2022-09-14T22:06:02.059Z,71.41
2022-09-14T22:09:03.718Z,70.34
2022-09-14T22:12:05.283Z,69.54
2022-09-14T22:15:07.075Z,70.44
2022-09-14T22:18:08.476Z,70.58
2022-09-14T22:21:09.980Z,69.31
2022-09-14T22:24:14.739Z,71.66
2022-09-14T22:27:16.191Z,73.06
2022-09-14T22:30:18.876Z,73.22
2022-09-14T22:33:24.754Z,74.77
2022-09-14T22:36:26.895Z,75.09
2022-09-14T22:39:28.289Z,76.50
2022-09-14T22:42:31.461Z,76.64
2022-09-14T22:45:32.855Z,74.79
2022-09-14T22:48:35.067Z,75.30
2022-09-14T22:51:36.805Z,74.17
2022-09-14T22:54:38.204Z,73.80
2022-09-14T22:57:39.607Z,74.21
2022-09-14T23:00:42.426Z,74.61
2022-09-14T23:03:44.132Z,74.37
2022-09-14T23:06:47.514Z,74.19
2022-09-14T23:09:49.096Z,73.43
2022-09-14T23:12:50.556Z,73.98
2022-09-14T23:15:52.002Z,73.74
2022-09-14T23:18:55.732Z,73.74
2022-09-14T23:21:57.161Z,74.13
2022-09-14T23:24:58.589Z,74.08
2022-09-14T23:28:00.082Z,74.01
2022-09-14T23:31:01.785Z,73.17
2022-09-14T23:34:04.959Z,73.15
2022-09-14T23:37:06.392Z,73.37
2022-09-14T23:40:08.471Z,72.71
2022-09-14T23:43:10.343Z,72.51
2022-09-14T23:46:12.557Z,72.84
2022-09-14T23:49:14.261Z,73.25
2022-09-14T23:52:15.662Z,71.67
2022-09-14T23:55:17.254Z,72.58
2022-09-14T23:58:18.680Z,72.19
